sensor_id;sensor_type;location;lat;lon;timestamp;P1;durP1;ratioP1;P2;durP2;ratioP2
34805;SDS011;65084;42.196;25.326;2022-11-15T00:00:47;68.05;;;29.20;;
34805;SDS011;65084;42.196;25.326;2022-11-15T00:03:14;75.47;;;32.53;;
34805;SDS011;65084;42.196;25.326;2022-11-15T00:05:42;68.45;;;29.98;;
34805;SDS011;65084;42.196;25.326;2022-11-15T00:08:09;72.82;;;30.20;;
34805;SDS011;65084;42.196;25.326;2022-11-15T00:10:36;70.03;;;29.42;;
34805;SDS011;65084;42.196;25.326;2022-11-15T00:13:04;64.60;;;29.02;;
34805;SDS011;65084;42.196;25.326;2022-11-15T00:15:33;65.80;;;27.90;;
34805;SDS011;65084;42.196;25.326;2022-11-15T00:18:02;61.75;;;27.65;;
34805;SDS011;65084;42.196;25.326;2022-11-15T00:20:30;65.55;;;28.23;;
34805;SDS011;65084;42.196;25.326;2022-11-15T00:22:57;67.40;;;28.90;;
34805;SDS011;65084;42.196;25.326;2022-11-15T00:25:24;72.72;;;29.00;;
34805;SDS011;65084;42.196;25.326;2022-11-15T00:27:54;69.47;;;28.40;;
34805;SDS011;65084;42.196;25.326;2022-11-15T00:30:21;75.53;;;28.33;;
34805;SDS011;65084;42.196;25.326;2022-11-15T00:32:49;63.03;;;27.63;;
34805;SDS011;65084;42.196;25.326;2022-11-15T00:35:18;73.20;;;28.58;;
34805;SDS011;65084;42.196;25.326;2022-11-15T00:37:45;66.65;;;26.83;;
34805;SDS011;65084;42.196;25.326;2022-11-15T00:40:13;65.15;;;28.27;;
34805;SDS011;65084;42.196;25.326;2022-11-15T00:42:41;70.15;;;28.25;;
34805;SDS011;65084;42.196;25.326;2022-11-15T00:45:09;69.57;;;26.90;;
34805;SDS011;65084;42.196;25.326;2022-11-15T00:47:36;66.85;;;28.58;;
34805;SDS011;65084;42.196;25.326;2022-11-15T00:50:04;78.75;;;30.95;;
34805;SDS011;65084;42.196;25.326;2022-11-15T00:52:33;71.32;;;28.17;;
34805;SDS011;65084;42.196;25.326;2022-11-15T00:55:00;71.10;;;27.35;;
34805;SDS011;65084;42.196;25.326;2022-11-15T00:57:27;77.20;;;28.70;;
34805;SDS011;65084;42.196;25.326;2022-11-15T00:59:54;69.20;;;28.52;;
34805;SDS011;65084;42.196;25.326;2022-11-15T01:02:22;70.00;;;28.73;;
34805;SDS011;65084;42.196;25.326;2022-11-15T01:04:49;69.45;;;29.33;;
34805;SDS011;65084;42.196;25.326;2022-11-15T01:07:16;67.10;;;29.75;;
34805;SDS011;65084;42.196;25.326;2022-11-15T01:09:45;68.82;;;28.60;;
34805;SDS011;65084;42.196;25.326;2022-11-15T01:12:12;70.70;;;29.88;;
34805;SDS011;65084;42.196;25.326;2022-11-15T01:14:39;79.55;;;30.08;;
34805;SDS011;65084;42.196;25.326;2022-11-15T01:17:07;78.03;;;31.15;;
34805;SDS011;65084;42.196;25.326;2022-11-15T01:19:34;59.92;;;28.58;;
34805;SDS011;65084;42.196;25.326;2022-11-15T01:22:01;76.18;;;31.40;;
34805;SDS011;65084;42.196;25.326;2022-11-15T01:24:29;78.13;;;32.30;;
34805;SDS011;65084;42.196;25.326;2022-11-15T01:26:57;84.82;;;32.85;;
34805;SDS011;65084;42.196;25.326;2022-11-15T01:29:24;77.28;;;32.45;;
34805;SDS011;65084;42.196;25.326;2022-11-15T01:31:52;80.97;;;33.47;;
34805;SDS011;65084;42.196;25.326;2022-11-15T01:34:19;78.22;;;33.47;;
34805;SDS011;65084;42.196;25.326;2022-11-15T01:36:47;92.57;;;35.88;;
34805;SDS011;65084;42.196;25.326;2022-11-15T01:39:14;82.75;;;33.75;;
34805;SDS011;65084;42.196;25.326;2022-11-15T01:41:41;81.22;;;32.65;;
34805;SDS011;65084;42.196;25.326;2022-11-15T01:46:56;79.85;;;31.42;;
34805;SDS011;65084;42.196;25.326;2022-11-15T01:49:24;78.55;;;32.58;;
34805;SDS011;65084;42.196;25.326;2022-11-15T01:51:53;94.80;;;33.63;;
34805;SDS011;65084;42.196;25.326;2022-11-15T01:54:21;99.68;;;35.40;;
34805;SDS011;65084;42.196;25.326;2022-11-15T01:56:50;82.55;;;32.10;;
34805;SDS011;65084;42.196;25.326;2022-11-15T01:59:19;95.45;;;35.60;;
34805;SDS011;65084;42.196;25.326;2022-11-15T02:01:46;92.15;;;34.38;;
34805;SDS011;65084;42.196;25.326;2022-11-15T02:04:15;101.45;;;36.33;;
34805;SDS011;65084;42.196;25.326;2022-11-15T02:06:43;104.68;;;37.22;;
34805;SDS011;65084;42.196;25.326;2022-11-15T02:09:12;105.72;;;38.67;;
34805;SDS011;65084;42.196;25.326;2022-11-15T02:11:39;105.20;;;37.58;;
34805;SDS011;65084;42.196;25.326;2022-11-15T02:14:07;112.80;;;41.85;;
34805;SDS011;65084;42.196;25.326;2022-11-15T02:16:38;111.72;;;39.50;;
34805;SDS011;65084;42.196;25.326;2022-11-15T02:19:13;110.55;;;38.10;;
34805;SDS011;65084;42.196;25.326;2022-11-15T02:21:45;115.53;;;39.35;;
34805;SDS011;65084;42.196;25.326;2022-11-15T02:30:14;128.07;;;42.72;;
34805;SDS011;65084;42.196;25.326;2022-11-15T02:32:43;123.30;;;36.40;;
34805;SDS011;65084;42.196;25.326;2022-11-15T02:35:13;112.13;;;37.85;;
34805;SDS011;65084;42.196;25.326;2022-11-15T02:37:43;138.40;;;39.47;;
34805;SDS011;65084;42.196;25.326;2022-11-15T02:40:13;118.43;;;38.80;;
34805;SDS011;65084;42.196;25.326;2022-11-15T02:42:45;129.90;;;40.80;;
34805;SDS011;65084;42.196;25.326;2022-11-15T02:45:35;114.70;;;38.20;;
34805;SDS011;65084;42.196;25.326;2022-11-15T02:48:04;124.05;;;39.95;;
34805;SDS011;65084;42.196;25.326;2022-11-15T02:50:32;123.30;;;40.17;;
34805;SDS011;65084;42.196;25.326;2022-11-15T02:53:00;140.25;;;39.60;;
34805;SDS011;65084;42.196;25.326;2022-11-15T02:55:28;127.32;;;40.95;;
34805;SDS011;65084;42.196;25.326;2022-11-15T02:58:00;138.18;;;42.17;;
34805;SDS011;65084;42.196;25.326;2022-11-15T03:00:34;125.85;;;40.60;;
34805;SDS011;65084;42.196;25.326;2022-11-15T03:03:12;134.65;;;40.53;;
34805;SDS011;65084;42.196;25.326;2022-11-15T03:05:41;256.38;;;40.63;;
34805;SDS011;65084;42.196;25.326;2022-11-15T03:08:13;161.20;;;41.38;;
34805;SDS011;65084;42.196;25.326;2022-11-15T03:10:46;124.28;;;39.78;;
34805;SDS011;65084;42.196;25.326;2022-11-15T03:13:21;145.30;;;40.83;;
34805;SDS011;65084;42.196;25.326;2022-11-15T03:15:52;153.48;;;41.85;;
34805;SDS011;65084;42.196;25.326;2022-11-15T03:18:21;143.50;;;39.85;;
34805;SDS011;65084;42.196;25.326;2022-11-15T03:20:49;163.40;;;40.00;;
34805;SDS011;65084;42.196;25.326;2022-11-15T03:23:17;150.65;;;42.63;;
34805;SDS011;65084;42.196;25.326;2022-11-15T03:25:45;142.45;;;40.90;;
34805;SDS011;65084;42.196;25.326;2022-11-15T03:28:14;155.80;;;42.08;;
34805;SDS011;65084;42.196;25.326;2022-11-15T03:30:42;138.85;;;38.65;;
34805;SDS011;65084;42.196;25.326;2022-11-15T03:33:12;155.77;;;41.83;;
34805;SDS011;65084;42.196;25.326;2022-11-15T03:35:40;191.05;;;43.78;;
34805;SDS011;65084;42.196;25.326;2022-11-15T03:38:11;152.27;;;42.65;;
34805;SDS011;65084;42.196;25.326;2022-11-15T03:40:42;167.55;;;43.17;;
34805;SDS011;65084;42.196;25.326;2022-11-15T03:43:14;172.40;;;45.53;;
34805;SDS011;65084;42.196;25.326;2022-11-15T03:45:43;165.95;;;43.63;;
34805;SDS011;65084;42.196;25.326;2022-11-15T03:48:14;161.35;;;42.95;;
34805;SDS011;65084;42.196;25.326;2022-11-15T03:50:43;179.95;;;45.30;;
34805;SDS011;65084;42.196;25.326;2022-11-15T03:53:11;189.95;;;47.35;;
34805;SDS011;65084;42.196;25.326;2022-11-15T03:55:39;193.73;;;50.08;;
34805;SDS011;65084;42.196;25.326;2022-11-15T03:58:06;211.25;;;54.42;;
34805;SDS011;65084;42.196;25.326;2022-11-15T04:00:33;194.25;;;52.10;;
34805;SDS011;65084;42.196;25.326;2022-11-15T04:03:01;209.32;;;54.50;;
34805;SDS011;65084;42.196;25.326;2022-11-15T04:05:29;219.48;;;56.20;;
34805;SDS011;65084;42.196;25.326;2022-11-15T04:07:57;194.43;;;49.83;;
34805;SDS011;65084;42.196;25.326;2022-11-15T04:10:24;207.30;;;50.70;;
34805;SDS011;65084;42.196;25.326;2022-11-15T04:12:51;192.50;;;48.10;;
34805;SDS011;65084;42.196;25.326;2022-11-15T04:15:19;234.90;;;51.13;;
34805;SDS011;65084;42.196;25.326;2022-11-15T04:17:47;210.40;;;52.78;;
34805;SDS011;65084;42.196;25.326;2022-11-15T04:20:16;241.20;;;53.63;;
34805;SDS011;65084;42.196;25.326;2022-11-15T04:23:03;213.83;;;52.30;;
34805;SDS011;65084;42.196;25.326;2022-11-15T04:25:49;229.75;;;48.47;;
34805;SDS011;65084;42.196;25.326;2022-11-15T04:28:18;177.77;;;51.15;;
34805;SDS011;65084;42.196;25.326;2022-11-15T04:30:45;194.30;;;50.75;;
34805;SDS011;65084;42.196;25.326;2022-11-15T04:33:12;189.15;;;50.60;;
34805;SDS011;65084;42.196;25.326;2022-11-15T04:35:40;197.70;;;49.72;;
34805;SDS011;65084;42.196;25.326;2022-11-15T04:38:09;201.38;;;52.38;;
34805;SDS011;65084;42.196;25.326;2022-11-15T04:40:35;227.27;;;52.60;;
34805;SDS011;65084;42.196;25.326;2022-11-15T04:43:03;201.52;;;54.10;;
34805;SDS011;65084;42.196;25.326;2022-11-15T04:45:30;218.43;;;55.92;;
34805;SDS011;65084;42.196;25.326;2022-11-15T04:47:57;214.48;;;54.92;;
34805;SDS011;65084;42.196;25.326;2022-11-15T04:50:25;221.77;;;58.95;;
34805;SDS011;65084;42.196;25.326;2022-11-15T04:52:53;218.60;;;54.72;;
34805;SDS011;65084;42.196;25.326;2022-11-15T04:55:21;238.02;;;58.25;;
34805;SDS011;65084;42.196;25.326;2022-11-15T04:57:56;238.70;;;53.88;;
34805;SDS011;65084;42.196;25.326;2022-11-15T05:00:24;155.07;;;39.65;;
34805;SDS011;65084;42.196;25.326;2022-11-15T05:02:51;251.85;;;55.13;;
34805;SDS011;65084;42.196;25.326;2022-11-15T05:05:36;268.88;;;52.28;;
34805;SDS011;65084;42.196;25.326;2022-11-15T05:08:04;240.30;;;54.53;;
34805;SDS011;65084;42.196;25.326;2022-11-15T05:10:32;201.75;;;52.00;;
34805;SDS011;65084;42.196;25.326;2022-11-15T05:13:00;194.70;;;50.28;;
34805;SDS011;65084;42.196;25.326;2022-11-15T05:15:27;187.23;;;50.72;;
34805;SDS011;65084;42.196;25.326;2022-11-15T05:17:57;159.82;;;48.50;;
34805;SDS011;65084;42.196;25.326;2022-11-15T05:20:25;153.30;;;47.10;;
34805;SDS011;65084;42.196;25.326;2022-11-15T05:22:52;192.30;;;53.03;;
34805;SDS011;65084;42.196;25.326;2022-11-15T05:25:20;173.70;;;50.30;;
34805;SDS011;65084;42.196;25.326;2022-11-15T05:27:49;206.52;;;50.28;;
34805;SDS011;65084;42.196;25.326;2022-11-15T05:30:16;201.45;;;53.63;;
34805;SDS011;65084;42.196;25.326;2022-11-15T05:32:43;186.88;;;54.20;;
34805;SDS011;65084;42.196;25.326;2022-11-15T05:35:12;261.73;;;53.55;;
34805;SDS011;65084;42.196;25.326;2022-11-15T05:37:40;218.07;;;54.90;;
34805;SDS011;65084;42.196;25.326;2022-11-15T05:40:08;255.20;;;55.47;;
34805;SDS011;65084;42.196;25.326;2022-11-15T05:42:35;213.98;;;54.17;;
34805;SDS011;65084;42.196;25.326;2022-11-15T05:45:05;199.63;;;53.60;;
34805;SDS011;65084;42.196;25.326;2022-11-15T05:47:33;164.55;;;53.25;;
34805;SDS011;65084;42.196;25.326;2022-11-15T05:50:01;160.32;;;52.05;;
34805;SDS011;65084;42.196;25.326;2022-11-15T05:52:29;178.40;;;54.47;;
34805;SDS011;65084;42.196;25.326;2022-11-15T05:54:57;182.05;;;55.25;;
34805;SDS011;65084;42.196;25.326;2022-11-15T05:57:24;194.45;;;58.03;;
34805;SDS011;65084;42.196;25.326;2022-11-15T05:59:52;174.75;;;52.15;;
34805;SDS011;65084;42.196;25.326;2022-11-15T06:02:22;177.20;;;54.00;;
34805;SDS011;65084;42.196;25.326;2022-11-15T06:04:49;199.70;;;55.03;;
34805;SDS011;65084;42.196;25.326;2022-11-15T06:07:16;175.13;;;50.60;;
34805;SDS011;65084;42.196;25.326;2022-11-15T06:09:44;186.00;;;51.78;;
34805;SDS011;65084;42.196;25.326;2022-11-15T06:12:11;213.27;;;54.50;;
34805;SDS011;65084;42.196;25.326;2022-11-15T06:14:38;216.30;;;53.25;;
34805;SDS011;65084;42.196;25.326;2022-11-15T06:17:05;206.60;;;53.58;;
34805;SDS011;65084;42.196;25.326;2022-11-15T06:19:34;201.45;;;54.80;;
34805;SDS011;65084;42.196;25.326;2022-11-15T06:22:01;204.50;;;56.05;;
34805;SDS011;65084;42.196;25.326;2022-11-15T06:24:29;210.90;;;56.88;;
34805;SDS011;65084;42.196;25.326;2022-11-15T06:26:56;230.13;;;58.90;;
34805;SDS011;65084;42.196;25.326;2022-11-15T06:29:24;227.73;;;59.00;;
34805;SDS011;65084;42.196;25.326;2022-11-15T06:31:51;228.90;;;60.03;;
34805;SDS011;65084;42.196;25.326;2022-11-15T06:34:18;217.50;;;59.17;;
34805;SDS011;65084;42.196;25.326;2022-11-15T06:36:47;242.48;;;59.50;;
34805;SDS011;65084;42.196;25.326;2022-11-15T06:39:14;218.13;;;59.38;;
34805;SDS011;65084;42.196;25.326;2022-11-15T06:41:42;286.42;;;99.60;;
34805;SDS011;65084;42.196;25.326;2022-11-15T06:44:09;229.63;;;77.45;;
34805;SDS011;65084;42.196;25.326;2022-11-15T06:46:36;231.77;;;73.38;;
34805;SDS011;65084;42.196;25.326;2022-11-15T06:49:03;224.60;;;60.58;;
34805;SDS011;65084;42.196;25.326;2022-11-15T06:51:31;252.68;;;65.63;;
34805;SDS011;65084;42.196;25.326;2022-11-15T06:53:59;252.45;;;67.75;;
34805;SDS011;65084;42.196;25.326;2022-11-15T06:56:27;243.27;;;67.20;;
34805;SDS011;65084;42.196;25.326;2022-11-15T06:58:55;251.20;;;63.13;;
34805;SDS011;65084;42.196;25.326;2022-11-15T07:01:22;239.32;;;62.00;;
34805;SDS011;65084;42.196;25.326;2022-11-15T07:03:49;235.18;;;65.20;;
34805;SDS011;65084;42.196;25.326;2022-11-15T07:06:17;249.90;;;61.72;;
34805;SDS011;65084;42.196;25.326;2022-11-15T07:08:44;175.60;;;52.22;;
34805;SDS011;65084;42.196;25.326;2022-11-15T07:11:13;164.68;;;48.38;;
34805;SDS011;65084;42.196;25.326;2022-11-15T07:13:40;171.73;;;50.78;;
34805;SDS011;65084;42.196;25.326;2022-11-15T07:16:08;164.68;;;47.72;;
34805;SDS011;65084;42.196;25.326;2022-11-15T07:18:36;160.55;;;48.45;;
34805;SDS011;65084;42.196;25.326;2022-11-15T07:21:04;155.82;;;48.28;;
34805;SDS011;65084;42.196;25.326;2022-11-15T07:23:32;145.48;;;45.95;;
34805;SDS011;65084;42.196;25.326;2022-11-15T07:25:59;161.00;;;65.95;;
34805;SDS011;65084;42.196;25.326;2022-11-15T07:28:28;157.05;;;59.30;;
34805;SDS011;65084;42.196;25.326;2022-11-15T07:30:55;134.18;;;48.85;;
34805;SDS011;65084;42.196;25.326;2022-11-15T07:33:22;126.72;;;42.80;;
34805;SDS011;65084;42.196;25.326;2022-11-15T07:35:50;114.05;;;41.95;;
34805;SDS011;65084;42.196;25.326;2022-11-15T07:38:17;134.90;;;50.60;;
34805;SDS011;65084;42.196;25.326;2022-11-15T07:40:45;123.38;;;48.13;;
34805;SDS011;65084;42.196;25.326;2022-11-15T07:43:13;105.88;;;44.70;;
34805;SDS011;65084;42.196;25.326;2022-11-15T07:45:42;96.10;;;41.13;;
34805;SDS011;65084;42.196;25.326;2022-11-15T07:48:10;67.95;;;35.33;;
34805;SDS011;65084;42.196;25.326;2022-11-15T07:50:39;80.07;;;39.80;;
34805;SDS011;65084;42.196;25.326;2022-11-15T07:53:07;60.38;;;31.33;;
34805;SDS011;65084;42.196;25.326;2022-11-15T07:55:34;57.92;;;33.50;;
34805;SDS011;65084;42.196;25.326;2022-11-15T07:58:02;89.30;;;43.28;;
34805;SDS011;65084;42.196;25.326;2022-11-15T08:00:29;87.35;;;41.65;;
34805;SDS011;65084;42.196;25.326;2022-11-15T08:03:05;54.63;;;29.75;;
34805;SDS011;65084;42.196;25.326;2022-11-15T08:05:33;73.90;;;36.97;;
34805;SDS011;65084;42.196;25.326;2022-11-15T08:08:00;61.05;;;32.78;;
34805;SDS011;65084;42.196;25.326;2022-11-15T08:10:27;58.15;;;29.88;;
34805;SDS011;65084;42.196;25.326;2022-11-15T08:12:58;46.70;;;27.50;;
34805;SDS011;65084;42.196;25.326;2022-11-15T08:15:26;61.00;;;30.58;;
34805;SDS011;65084;42.196;25.326;2022-11-15T08:17:54;56.75;;;29.67;;
34805;SDS011;65084;42.196;25.326;2022-11-15T08:20:23;64.32;;;33.65;;
34805;SDS011;65084;42.196;25.326;2022-11-15T08:22:50;71.25;;;30.88;;
34805;SDS011;65084;42.196;25.326;2022-11-15T08:25:18;49.60;;;29.25;;
34805;SDS011;65084;42.196;25.326;2022-11-15T08:27:45;60.88;;;34.58;;
34805;SDS011;65084;42.196;25.326;2022-11-15T08:30:12;68.10;;;36.75;;
34805;SDS011;65084;42.196;25.326;2022-11-15T08:32:41;58.83;;;32.17;;
34805;SDS011;65084;42.196;25.326;2022-11-15T08:35:08;57.35;;;31.08;;
34805;SDS011;65084;42.196;25.326;2022-11-15T08:37:37;54.58;;;30.83;;
34805;SDS011;65084;42.196;25.326;2022-11-15T08:40:05;43.53;;;27.10;;
34805;SDS011;65084;42.196;25.326;2022-11-15T08:42:32;53.13;;;30.23;;
34805;SDS011;65084;42.196;25.326;2022-11-15T08:44:59;54.30;;;30.13;;
34805;SDS011;65084;42.196;25.326;2022-11-15T08:47:27;47.88;;;27.98;;
34805;SDS011;65084;42.196;25.326;2022-11-15T08:49:54;50.17;;;26.95;;
34805;SDS011;65084;42.196;25.326;2022-11-15T08:52:21;48.38;;;28.27;;
34805;SDS011;65084;42.196;25.326;2022-11-15T08:54:50;48.60;;;28.17;;
34805;SDS011;65084;42.196;25.326;2022-11-15T08:57:17;58.40;;;28.15;;
34805;SDS011;65084;42.196;25.326;2022-11-15T08:59:45;49.33;;;26.65;;
34805;SDS011;65084;42.196;25.326;2022-11-15T09:02:13;54.08;;;29.15;;
34805;SDS011;65084;42.196;25.326;2022-11-15T09:04:40;48.55;;;29.65;;
34805;SDS011;65084;42.196;25.326;2022-11-15T09:07:08;44.30;;;28.15;;
34805;SDS011;65084;42.196;25.326;2022-11-15T09:09:35;57.85;;;29.67;;
34805;SDS011;65084;42.196;25.326;2022-11-15T09:12:04;53.28;;;29.45;;
34805;SDS011;65084;42.196;25.326;2022-11-15T09:14:32;49.08;;;29.45;;
34805;SDS011;65084;42.196;25.326;2022-11-15T09:17:00;57.35;;;29.55;;
34805;SDS011;65084;42.196;25.326;2022-11-15T09:19:27;54.15;;;30.10;;
34805;SDS011;65084;42.196;25.326;2022-11-15T09:21:54;62.95;;;30.98;;
34805;SDS011;65084;42.196;25.326;2022-11-15T09:24:21;53.83;;;31.85;;
34805;SDS011;65084;42.196;25.326;2022-11-15T09:26:49;51.88;;;29.27;;
34805;SDS011;65084;42.196;25.326;2022-11-15T09:29:18;52.53;;;30.33;;
34805;SDS011;65084;42.196;25.326;2022-11-15T09:31:45;60.58;;;32.60;;
34805;SDS011;65084;42.196;25.326;2022-11-15T09:34:13;60.45;;;32.78;;
34805;SDS011;65084;42.196;25.326;2022-11-15T09:36:40;59.53;;;33.55;;
34805;SDS011;65084;42.196;25.326;2022-11-15T09:39:07;53.22;;;30.27;;
34805;SDS011;65084;42.196;25.326;2022-11-15T09:41:41;53.15;;;31.17;;
34805;SDS011;65084;42.196;25.326;2022-11-15T09:44:20;55.17;;;31.85;;
34805;SDS011;65084;42.196;25.326;2022-11-15T09:46:52;53.08;;;31.75;;
34805;SDS011;65084;42.196;25.326;2022-11-15T09:49:22;61.05;;;32.00;;
34805;SDS011;65084;42.196;25.326;2022-11-15T09:51:50;57.22;;;33.05;;
34805;SDS011;65084;42.196;25.326;2022-11-15T09:54:23;52.55;;;29.73;;
34805;SDS011;65084;42.196;25.326;2022-11-15T09:56:54;60.05;;;29.42;;
34805;SDS011;65084;42.196;25.326;2022-11-15T09:59:35;57.60;;;30.10;;
34805;SDS011;65084;42.196;25.326;2022-11-15T10:02:09;58.50;;;29.77;;
34805;SDS011;65084;42.196;25.326;2022-11-15T10:04:39;51.47;;;28.88;;
34805;SDS011;65084;42.196;25.326;2022-11-15T10:07:10;55.45;;;28.98;;
34805;SDS011;65084;42.196;25.326;2022-11-15T10:09:42;45.15;;;26.50;;
34805;SDS011;65084;42.196;25.326;2022-11-15T10:12:11;54.50;;;27.85;;
34805;SDS011;65084;42.196;25.326;2022-11-15T10:14:41;48.53;;;28.08;;
34805;SDS011;65084;42.196;25.326;2022-11-15T10:17:19;60.75;;;31.13;;
34805;SDS011;65084;42.196;25.326;2022-11-15T10:19:54;58.25;;;30.85;;
34805;SDS011;65084;42.196;25.326;2022-11-15T10:22:27;58.50;;;30.33;;
34805;SDS011;65084;42.196;25.326;2022-11-15T10:25:00;70.38;;;33.08;;
34805;SDS011;65084;42.196;25.326;2022-11-15T10:27:27;58.88;;;29.55;;
34805;SDS011;65084;42.196;25.326;2022-11-15T10:29:57;59.88;;;30.08;;
34805;SDS011;65084;42.196;25.326;2022-11-15T10:32:24;61.05;;;29.92;;
34805;SDS011;65084;42.196;25.326;2022-11-15T10:34:52;66.47;;;32.00;;
34805;SDS011;65084;42.196;25.326;2022-11-15T10:37:27;64.47;;;30.83;;
34805;SDS011;65084;42.196;25.326;2022-11-15T10:40:02;63.57;;;31.13;;
34805;SDS011;65084;42.196;25.326;2022-11-15T10:42:30;70.57;;;32.50;;
34805;SDS011;65084;42.196;25.326;2022-11-15T10:44:59;81.22;;;40.60;;
34805;SDS011;65084;42.196;25.326;2022-11-15T10:47:27;68.38;;;33.35;;
34805;SDS011;65084;42.196;25.326;2022-11-15T10:50:00;58.75;;;30.80;;
34805;SDS011;65084;42.196;25.326;2022-11-15T10:52:28;59.38;;;29.75;;
34805;SDS011;65084;42.196;25.326;2022-11-15T10:54:57;61.63;;;29.83;;
34805;SDS011;65084;42.196;25.326;2022-11-15T10:57:28;55.85;;;30.67;;
34805;SDS011;65084;42.196;25.326;2022-11-15T10:59:57;63.78;;;30.63;;
34805;SDS011;65084;42.196;25.326;2022-11-15T11:02:31;63.15;;;29.55;;
34805;SDS011;65084;42.196;25.326;2022-11-15T11:04:59;65.03;;;30.98;;
34805;SDS011;65084;42.196;25.326;2022-11-15T11:07:27;81.85;;;34.72;;
34805;SDS011;65084;42.196;25.326;2022-11-15T11:09:59;75.38;;;32.75;;
34805;SDS011;65084;42.196;25.326;2022-11-15T11:12:27;64.30;;;30.27;;
34805;SDS011;65084;42.196;25.326;2022-11-15T11:14:56;63.17;;;31.20;;
34805;SDS011;65084;42.196;25.326;2022-11-15T11:17:26;68.47;;;32.85;;
34805;SDS011;65084;42.196;25.326;2022-11-15T11:20:00;61.58;;;31.27;;
34805;SDS011;65084;42.196;25.326;2022-11-15T11:22:30;69.68;;;35.30;;
34805;SDS011;65084;42.196;25.326;2022-11-15T11:25:03;73.60;;;32.78;;
34805;SDS011;65084;42.196;25.326;2022-11-15T11:27:36;68.22;;;34.03;;
34805;SDS011;65084;42.196;25.326;2022-11-15T11:30:08;62.58;;;32.78;;
34805;SDS011;65084;42.196;25.326;2022-11-15T11:32:57;64.45;;;32.55;;
34805;SDS011;65084;42.196;25.326;2022-11-15T11:35:29;57.17;;;29.83;;
34805;SDS011;65084;42.196;25.326;2022-11-15T11:38:00;58.33;;;31.15;;
34805;SDS011;65084;42.196;25.326;2022-11-15T11:40:34;57.25;;;29.42;;
34805;SDS011;65084;42.196;25.326;2022-11-15T11:43:06;53.53;;;29.48;;
34805;SDS011;65084;42.196;25.326;2022-11-15T11:48:29;54.88;;;28.80;;
34805;SDS011;65084;42.196;25.326;2022-11-15T11:51:03;46.38;;;27.25;;
34805;SDS011;65084;42.196;25.326;2022-11-15T11:53:34;51.95;;;28.58;;
34805;SDS011;65084;42.196;25.326;2022-11-15T11:56:04;48.92;;;28.17;;
34805;SDS011;65084;42.196;25.326;2022-11-15T11:58:33;49.63;;;29.13;;
34805;SDS011;65084;42.196;25.326;2022-11-15T12:01:03;45.63;;;28.55;;
34805;SDS011;65084;42.196;25.326;2022-11-15T12:03:34;52.10;;;29.70;;
34805;SDS011;65084;42.196;25.326;2022-11-15T12:06:10;52.25;;;27.65;;
34805;SDS011;65084;42.196;25.326;2022-11-15T12:08:44;46.30;;;28.23;;
34805;SDS011;65084;42.196;25.326;2022-11-15T12:11:13;47.83;;;27.20;;
34805;SDS011;65084;42.196;25.326;2022-11-15T12:13:41;46.38;;;27.90;;
34805;SDS011;65084;42.196;25.326;2022-11-15T12:16:11;43.05;;;26.45;;
34805;SDS011;65084;42.196;25.326;2022-11-15T12:18:40;42.65;;;24.55;;
34805;SDS011;65084;42.196;25.326;2022-11-15T12:21:15;40.03;;;25.88;;
34805;SDS011;65084;42.196;25.326;2022-11-15T12:23:45;37.72;;;25.90;;
34805;SDS011;65084;42.196;25.326;2022-11-15T12:26:16;35.10;;;23.55;;
34805;SDS011;65084;42.196;25.326;2022-11-15T12:28:45;37.03;;;24.73;;
34805;SDS011;65084;42.196;25.326;2022-11-15T12:31:15;36.10;;;22.58;;
34805;SDS011;65084;42.196;25.326;2022-11-15T12:33:45;33.67;;;22.90;;
34805;SDS011;65084;42.196;25.326;2022-11-15T12:39:07;38.05;;;24.20;;
34805;SDS011;65084;42.196;25.326;2022-11-15T12:41:35;35.08;;;24.60;;
34805;SDS011;65084;42.196;25.326;2022-11-15T12:44:03;34.72;;;23.50;;
34805;SDS011;65084;42.196;25.326;2022-11-15T12:57:41;42.58;;;27.02;;
34805;SDS011;65084;42.196;25.326;2022-11-15T13:03:21;39.50;;;24.52;;
34805;SDS011;65084;42.196;25.326;2022-11-15T13:06:00;36.55;;;24.65;;
34805;SDS011;65084;42.196;25.326;2022-11-15T13:08:38;37.25;;;24.17;;
34805;SDS011;65084;42.196;25.326;2022-11-15T13:13:52;35.30;;;23.35;;
34805;SDS011;65084;42.196;25.326;2022-11-15T13:16:20;33.03;;;23.08;;
34805;SDS011;65084;42.196;25.326;2022-11-15T13:18:52;30.08;;;21.77;;
34805;SDS011;65084;42.196;25.326;2022-11-15T13:21:21;36.47;;;23.58;;
34805;SDS011;65084;42.196;25.326;2022-11-15T13:26:33;34.50;;;24.15;;
34805;SDS011;65084;42.196;25.326;2022-11-15T13:29:02;37.47;;;23.60;;
34805;SDS011;65084;42.196;25.326;2022-11-15T13:31:40;35.17;;;25.33;;
34805;SDS011;65084;42.196;25.326;2022-11-15T13:34:16;41.40;;;25.55;;
34805;SDS011;65084;42.196;25.326;2022-11-15T13:36:43;38.15;;;25.10;;
34805;SDS011;65084;42.196;25.326;2022-11-15T13:39:12;34.90;;;23.58;;
34805;SDS011;65084;42.196;25.326;2022-11-15T13:41:45;35.08;;;23.73;;
34805;SDS011;65084;42.196;25.326;2022-11-15T13:44:23;41.53;;;25.02;;
34805;SDS011;65084;42.196;25.326;2022-11-15T13:47:00;52.20;;;25.00;;
34805;SDS011;65084;42.196;25.326;2022-11-15T13:49:29;61.42;;;27.80;;
34805;SDS011;65084;42.196;25.326;2022-11-15T13:51:57;41.28;;;25.92;;
34805;SDS011;65084;42.196;25.326;2022-11-15T13:54:25;41.88;;;25.67;;
34805;SDS011;65084;42.196;25.326;2022-11-15T13:56:55;44.97;;;26.50;;
34805;SDS011;65084;42.196;25.326;2022-11-15T13:59:25;54.50;;;26.38;;
34805;SDS011;65084;42.196;25.326;2022-11-15T14:01:53;43.47;;;25.40;;
34805;SDS011;65084;42.196;25.326;2022-11-15T14:04:21;42.45;;;27.10;;
34805;SDS011;65084;42.196;25.326;2022-11-15T14:06:50;47.30;;;26.90;;
34805;SDS011;65084;42.196;25.326;2022-11-15T14:09:29;52.60;;;28.02;;
34805;SDS011;65084;42.196;25.326;2022-11-15T14:11:57;47.72;;;28.20;;
34805;SDS011;65084;42.196;25.326;2022-11-15T14:14:27;47.58;;;28.52;;
34805;SDS011;65084;42.196;25.326;2022-11-15T14:16:55;56.75;;;29.10;;
34805;SDS011;65084;42.196;25.326;2022-11-15T14:19:38;56.53;;;27.50;;
34805;SDS011;65084;42.196;25.326;2022-11-15T14:22:19;65.25;;;27.67;;
34805;SDS011;65084;42.196;25.326;2022-11-15T14:27:39;55.80;;;28.90;;
34805;SDS011;65084;42.196;25.326;2022-11-15T14:30:09;63.15;;;30.65;;
34805;SDS011;65084;42.196;25.326;2022-11-15T14:32:40;56.17;;;29.67;;
34805;SDS011;65084;42.196;25.326;2022-11-15T14:35:11;53.13;;;29.23;;
34805;SDS011;65084;42.196;25.326;2022-11-15T14:37:39;53.78;;;30.77;;
34805;SDS011;65084;42.196;25.326;2022-11-15T14:40:08;66.10;;;31.15;;
34805;SDS011;65084;42.196;25.326;2022-11-15T14:42:36;61.17;;;33.80;;
34805;SDS011;65084;42.196;25.326;2022-11-15T14:45:04;53.38;;;32.17;;
34805;SDS011;65084;42.196;25.326;2022-11-15T14:47:36;52.28;;;32.47;;
34805;SDS011;65084;42.196;25.326;2022-11-15T14:50:03;54.88;;;32.05;;
34805;SDS011;65084;42.196;25.326;2022-11-15T14:52:32;54.65;;;30.77;;